Time;durP1;ratioP1;P1;durP2;ratioP2;P2;SDS_P1;SDS_P2;PMS_P1;PMS_P2;Temp;Humidity;BMP_temperature;BMP_pressure;BME280_temperature;BME280_humidity;BME280_pressure;Samples;Min_cycle;Max_cycle;Signal;HPM_P1;HPM_P2
2023/04/07 00:00:48;;;;;;;23.88;22.05;;;;;;;13.47;54.18;101381.94;5012438;28;20030;-76
2023/04/07 00:03:14;;;;;;;22.95;21.38;;;;;;;13.46;54.40;101377.59;5012303;28;20440;-76
2023/04/07 00:05:40;;;;;;;22.05;20.35;;;;;;;13.46;54.13;101373.00;5009001;28;20037;-76
2023/04/07 00:08:05;;;;;;;24.50;22.38;;;;;;;13.46;54.35;101367.56;5009649;28;20433;-76
2023/04/07 00:10:31;;;;;;;22.48;20.88;;;;;;;13.46;54.36;101372.16;5009200;28;20470;-76
2023/04/07 00:12:57;;;;;;;23.52;21.80;;;;;;;13.45;54.32;101374.03;5010987;28;20038;-76
2023/04/07 00:15:22;;;;;;;23.35;21.73;;;;;;;13.45;54.19;101373.22;5002806;28;20383;-77
2023/04/07 00:17:48;;;;;;;23.38;21.52;;;;;;;13.45;54.34;101375.94;4996883;28;20041;-76
2023/04/07 00:20:13;;;;;;;21.85;20.38;;;;;;;13.44;54.25;101375.13;4995678;28;20078;-76
2023/04/07 00:22:39;;;;;;;23.95;21.95;;;;;;;13.44;54.35;101380.56;4994244;28;20475;-76
2023/04/07 00:25:05;;;;;;;24.45;22.48;;;;;;;13.44;54.00;101377.00;4993397;28;20466;-76
2023/04/07 00:27:30;;;;;;;24.65;22.80;;;;;;;13.44;54.17;101375.13;5000644;28;20041;-76
2023/04/07 00:29:59;;;;;;;22.52;20.90;;;;;;;13.42;54.11;101378.06;5010395;28;20033;-76
2023/04/07 00:32:24;;;;;;;21.48;19.98;;;;;;;13.44;54.26;101377.00;4995455;28;20044;-75
2023/04/07 00:34:49;;;;;;;22.23;20.42;;;;;;;13.42;54.36;101379.97;4995805;28;20042;-76
2023/04/07 00:37:15;;;;;;;22.70;21.08;;;;;;;13.42;54.30;101380.78;5002532;28;20030;-76
2023/04/07 00:39:40;;;;;;;23.15;21.48;;;;;;;13.42;54.22;101374.53;5010237;28;20498;-76
2023/04/07 00:42:06;;;;;;;23.73;22.08;;;;;;;13.42;54.09;101379.97;5011571;28;20033;-76
2023/04/07 00:44:32;;;;;;;24.08;22.25;;;;;;;13.42;54.01;101379.97;5012923;28;20064;-76
2023/04/07 00:46:59;;;;;;;23.88;22.08;;;;;;;13.42;54.39;101386.22;5008674;28;20049;-75
2023/04/07 00:49:27;;;;;;;23.38;21.15;;;;;;;13.41;54.07;101375.63;4998807;28;20057;-76
2023/04/07 00:51:53;;;;;;;22.02;20.63;;;;;;;13.41;54.45;101383.75;5012998;28;20412;-76
2023/04/07 00:54:18;;;;;;;21.98;20.60;;;;;;;13.40;54.15;101385.63;5011949;28;20038;-76
2023/04/07 00:56:44;;;;;;;22.70;21.10;;;;;;;13.39;54.24;101384.00;5008472;28;20505;-76
2023/04/07 00:59:09;;;;;;;24.25;22.52;;;;;;;13.39;54.01;101384.00;4999384;28;20505;-76
2023/04/07 01:01:49;;;;;;;21.95;20.45;;;;;;;13.39;54.12;101380.47;5012310;28;20041;-76
2023/04/07 01:04:50;;;;;;;24.65;22.92;;;;;;;13.38;54.27;101378.81;5012085;28;20089;-76
2023/04/07 01:07:26;;;;;;;22.98;21.20;;;;;;;13.35;54.44;101382.00;5010108;28;20058;-76
2023/04/07 01:09:59;;;;;;;22.20;20.80;;;;;;;13.34;54.17;101378.47;4997040;28;20034;-76
2023/04/07 01:12:30;;;;;;;22.60;21.02;;;;;;;13.34;54.06;101378.47;5011781;28;20030;-76
2023/04/07 01:15:03;;;;;;;23.42;21.65;;;;;;;13.35;54.17;101380.13;5011847;28;20026;-76
2023/04/07 01:17:32;;;;;;;22.20;20.55;;;;;;;13.35;54.08;101382.00;5010264;28;20061;-76
2023/04/07 01:20:02;;;;;;;20.98;19.35;;;;;;;13.33;54.16;101382.28;4997516;28;20503;-76
2023/04/07 01:22:55;;;;;;;22.92;21.40;;;;;;;13.33;54.13;101382.28;4992649;28;20367;-75
2023/04/07 01:25:30;;;;;;;21.42;19.98;;;;;;;13.33;54.34;101385.00;4991005;28;20070;-75
2023/04/07 01:28:10;;;;;;;23.60;21.90;;;;;;;13.32;54.21;101391.47;4994304;28;20113;-75
2023/04/07 01:30:40;;;;;;;22.02;20.73;;;;;;;13.32;54.27;101386.03;4993914;28;20486;-76
2023/04/07 01:33:07;;;;;;;22.50;20.85;;;;;;;13.32;54.15;101385.22;5001046;28;20030;-75
2023/04/07 01:35:35;;;;;;;21.80;20.20;;;;;;;13.33;54.23;101392.28;5012201;28;20042;-76
2023/04/07 01:38:02;;;;;;;20.53;19.23;;;;;;;13.32;54.17;101388.75;5009617;28;20034;-76
2023/04/07 01:40:28;;;;;;;22.08;20.67;;;;;;;13.32;54.27;101393.34;4997056;28;20053;-75
2023/04/07 01:42:56;;;;;;;22.55;20.52;;;;;;;13.33;53.94;101395.84;5008300;28;20030;-75
2023/04/07 01:45:22;;;;;;;20.95;19.60;;;;;;;13.31;54.13;101395.25;5009943;28;20161;-76
2023/04/07 01:47:49;;;;;;;21.73;20.30;;;;;;;13.32;54.56;101393.34;4992726;28;20039;-75
2023/04/07 01:50:15;;;;;;;23.38;21.70;;;;;;;13.31;54.30;101397.97;5001520;28;20030;-76
2023/04/07 01:52:41;;;;;;;22.08;20.42;;;;;;;13.31;54.16;101403.41;4992517;28;20042;-76
2023/04/07 01:55:08;;;;;;;23.25;21.55;;;;;;;13.32;54.15;101405.03;4991610;28;20446;-75
2023/04/07 01:57:34;;;;;;;20.45;19.15;;;;;;;13.31;54.32;101402.59;4996748;28;20394;-76
2023/04/07 01:59:59;;;;;;;22.55;21.05;;;;;;;13.29;53.87;101400.09;5005410;28;20040;-76
2023/04/07 02:02:25;;;;;;;21.05;19.63;;;;;;;13.30;54.14;101400.91;5002437;28;20033;-76
2023/04/07 02:04:55;;;;;;;21.70;20.20;;;;;;;13.30;54.07;101404.44;5009813;28;20088;-75
2023/04/07 02:07:28;;;;;;;23.67;21.95;;;;;;;13.30;54.10;101403.63;5005202;28;20469;-75
2023/04/07 02:09:57;;;;;;;21.80;20.45;;;;;;;13.28;53.78;101409.31;4991936;28;20049;-75
2023/04/07 02:12:27;;;;;;;22.55;21.05;;;;;;;13.29;53.95;101413.66;4998616;28;20128;-75
2023/04/07 02:14:54;;;;;;;23.48;21.45;;;;;;;13.28;54.15;101412.03;5009769;28;20394;-76
2023/04/07 02:17:21;;;;;;;22.85;20.92;;;;;;;13.28;54.02;101405.75;5008399;28;20034;-75
2023/04/07 02:19:49;;;;;;;23.90;21.50;;;;;;;13.28;54.06;101414.75;5011278;28;20053;-75
2023/04/07 02:22:16;;;;;;;23.23;21.38;;;;;;;13.27;54.06;101423.94;5001307;28;20061;-75
2023/04/07 02:24:44;;;;;;;23.52;21.95;;;;;;;13.28;54.05;101427.47;5012746;28;20034;-75
2023/04/07 02:27:10;;;;;;;23.48;21.77;;;;;;;13.27;54.25;101431.25;5015217;28;20034;-75
2023/04/07 02:29:35;;;;;;;21.02;19.73;;;;;;;13.27;53.99;101423.13;5009585;28;20406;-75
2023/04/07 02:32:01;;;;;;;21.67;20.20;;;;;;;13.26;54.13;101421.44;5005620;28;20038;-76
2023/04/07 02:34:26;;;;;;;21.13;19.75;;;;;;;13.25;53.97;101417.91;5009595;28;20125;-75
2023/04/07 02:36:51;;;;;;;21.95;20.48;;;;;;;13.25;54.19;101415.19;5014740;28;20401;-76
2023/04/07 02:39:17;;;;;;;22.63;20.85;;;;;;;13.25;54.17;101417.06;5004183;28;20129;-75
2023/04/07 02:41:42;;;;;;;22.58;20.83;;;;;;;13.25;54.04;101406.22;5011396;28;20501;-75
2023/04/07 02:44:07;;;;;;;22.88;21.13;;;;;;;13.24;54.11;101407.31;4999554;28;20064;-76
2023/04/07 02:46:33;;;;;;;21.33;19.83;;;;;;;13.24;54.21;101408.13;5015174;28;20039;-75
2023/04/07 02:48:59;;;;;;;20.35;19.05;;;;;;;13.22;54.04;101418.38;5007551;28;20042;-76
2023/04/07 02:51:25;;;;;;;22.23;20.33;;;;;;;13.23;54.06;101414.63;4981562;28;20623;-76
2023/04/07 02:53:51;;;;;;;21.83;20.35;;;;;;;13.21;54.22;101412.16;5000391;28;20042;-76
2023/04/07 02:56:17;;;;;;;22.60;20.90;;;;;;;13.21;54.22;101412.16;4995069;28;20034;-76
2023/04/07 02:58:42;;;;;;;21.20;19.70;;;;;;;13.22;54.16;101410.25;4996347;28;20055;-76
2023/04/07 03:01:07;;;;;;;21.17;19.85;;;;;;;13.23;54.29;101416.50;5002370;28;20474;-75
2023/04/07 03:03:33;;;;;;;23.52;21.83;;;;;;;13.21;53.89;101411.31;5008125;28;20030;-75
2023/04/07 03:05:58;;;;;;;19.63;18.42;;;;;;;13.20;54.17;101412.38;4999893;28;20038;-75
2023/04/07 03:08:23;;;;;;;23.27;21.48;;;;;;;13.21;54.00;101411.31;5013475;28;20049;-75
2023/04/07 03:10:49;;;;;;;22.25;20.20;;;;;;;13.19;54.13;101402.59;5007664;28;20436;-76
2023/04/07 03:13:17;;;;;;;23.95;22.35;;;;;;;13.19;54.20;101408.03;5011114;28;20041;-75
2023/04/07 03:15:43;;;;;;;20.65;19.27;;;;;;;13.18;54.16;101411.81;4998612;28;20112;-76
2023/04/07 03:18:10;;;;;;;20.88;19.42;;;;;;;13.17;54.19;101408.25;5013322;28;20080;-75
2023/04/07 03:20:36;;;;;;;20.33;18.95;;;;;;;13.17;54.11;101413.69;5010189;28;20518;-76
2023/04/07 03:23:02;;;;;;;21.50;19.88;;;;;;;13.16;54.17;101414.75;4997540;28;20049;-75
2023/04/07 03:25:27;;;;;;;22.92;21.02;;;;;;;13.16;54.00;101412.06;4994746;28;20038;-75
2023/04/07 03:27:53;;;;;;;21.20;19.83;;;;;;;13.16;53.91;101417.47;4995114;28;20121;-76
2023/04/07 03:30:18;;;;;;;21.23;19.27;;;;;;;13.15;54.11;101410.41;4999676;28;20054;-76
2023/04/07 03:32:43;;;;;;;20.17;18.88;;;;;;;13.16;53.61;101416.66;5001657;28;20041;-76
2023/04/07 03:35:09;;;;;;;20.52;19.13;;;;;;;13.15;54.18;101417.72;5012951;28;20064;-76
2023/04/07 03:37:35;;;;;;;20.25;18.83;;;;;;;13.13;54.17;101415.25;5012674;28;20430;-75
2023/04/07 03:40:01;;;;;;;21.90;20.33;;;;;;;13.14;53.96;101416.06;5013247;28;20030;-75
2023/04/07 03:42:26;;;;;;;22.17;20.33;;;;;;;13.13;54.25;101409.84;4993310;28;20085;-76
2023/04/07 03:44:52;;;;;;;20.52;19.17;;;;;;;13.12;54.02;101410.88;5010550;28;20038;-76
2023/04/07 03:47:17;;;;;;;21.65;20.13;;;;;;;13.13;53.92;101411.72;5012603;28;20500;-75
2023/04/07 03:49:43;;;;;;;20.60;19.20;;;;;;;13.12;54.10;101410.06;5013586;28;20054;-76
2023/04/07 03:52:08;;;;;;;20.05;18.55;;;;;;;13.11;54.01;101417.38;5009422;28;20062;-76
2023/04/07 03:54:34;;;;;;;21.73;20.33;;;;;;;13.10;54.22;101410.31;5000407;28;20046;-76
2023/04/07 03:57:01;;;;;;;21.83;20.45;;;;;;;13.11;54.23;101405.72;5007184;28;20030;-76
2023/04/07 03:59:26;;;;;;;21.10;19.60;;;;;;;13.09;53.95;101410.56;5011011;28;20058;-76
2023/04/07 04:01:52;;;;;;;21.15;19.75;;;;;;;13.09;53.98;101405.13;5008375;28;20049;-75
2023/04/07 04:04:17;;;;;;;21.55;20.00;;;;;;;13.09;53.87;101405.13;5002525;28;20038;-75
2023/04/07 04:06:42;;;;;;;20.65;19.25;;;;;;;13.08;53.96;101398.03;5012863;28;20405;-76
2023/04/07 04:09:08;;;;;;;22.20;20.30;;;;;;;13.07;53.89;101405.38;5014025;28;20033;-76
2023/04/07 04:11:33;;;;;;;20.48;19.05;;;;;;;13.07;54.12;101407.25;5011810;28;20675;-75
2023/04/07 04:13:59;;;;;;;21.67;20.17;;;;;;;13.06;53.86;101411.06;5011041;28;20521;-76
2023/04/07 04:16:24;;;;;;;23.50;21.90;;;;;;;13.04;53.95;101411.28;4999848;28;20049;-76
2023/04/07 04:18:50;;;;;;;19.58;18.38;;;;;;;13.04;53.95;101413.19;4994171;28;20422;-76
2023/04/07 04:21:15;;;;;;;20.95;19.48;;;;;;;13.04;54.17;101413.19;4993034;28;20034;-76
2023/04/07 04:23:40;;;;;;;21.10;19.77;;;;;;;13.03;54.08;101425.91;5005459;28;20046;-76
2023/04/07 04:26:06;;;;;;;22.27;20.38;;;;;;;13.03;54.16;101422.34;4994030;28;20053;-76
2023/04/07 04:28:31;;;;;;;22.92;21.27;;;;;;;13.02;54.18;101432.38;4993459;28;20101;-76
2023/04/07 04:30:57;;;;;;;21.40;19.80;;;;;;;13.01;54.01;101424.50;4994285;28;20066;-76
2023/04/07 04:33:22;;;;;;;22.92;21.33;;;;;;;13.01;53.86;101435.38;5002396;28;20069;-76
2023/04/07 04:35:47;;;;;;;20.77;19.50;;;;;;;13.01;53.92;101428.03;5002221;28;20033;-76
2023/04/07 04:38:13;;;;;;;21.52;19.83;;;;;;;12.99;53.88;101441.84;5011230;28;20034;-76
2023/04/07 04:40:38;;;;;;;21.85;20.35;;;;;;;12.99;53.88;101435.59;5012502;28;20508;-76
2023/04/07 04:43:08;;;;;;;21.08;19.67;;;;;;;12.97;54.04;101435.81;5005173;28;20045;-76
2023/04/07 04:45:33;;;;;;;22.35;20.60;;;;;;;12.98;54.12;101440.19;5010512;28;20038;-76
2023/04/07 04:47:59;;;;;;;22.05;20.15;;;;;;;12.97;54.05;101435.00;5004042;28;20049;-76
2023/04/07 04:50:24;;;;;;;22.35;20.70;;;;;;;12.97;54.00;101443.13;4993074;28;20108;-76
2023/04/07 04:52:50;;;;;;;21.50;19.98;;;;;;;12.95;54.20;101440.69;4994025;28;20467;-76
2023/04/07 04:55:15;;;;;;;21.55;19.40;;;;;;;12.94;54.12;101446.34;4999460;28;20116;-76
2023/04/07 04:57:40;;;;;;;21.48;19.98;;;;;;;12.94;53.87;101449.88;4992794;28;20037;-76
2023/04/07 05:00:06;;;;;;;22.38;20.45;;;;;;;12.95;53.68;101454.25;4992041;28;20115;-76
2023/04/07 05:02:32;;;;;;;22.23;20.63;;;;;;;12.94;54.09;101452.59;5009740;28;20076;-76
2023/04/07 05:04:58;;;;;;;21.52;19.92;;;;;;;12.92;53.92;101452.00;4998726;28;20187;-76
2023/04/07 05:07:23;;;;;;;23.23;21.48;;;;;;;12.93;53.77;101452.84;5010847;28;20490;-75
2023/04/07 05:09:48;;;;;;;21.02;19.63;;;;;;;12.91;53.88;101453.06;5008239;28;20493;-76
2023/04/07 05:12:14;;;;;;;21.42;19.77;;;;;;;12.91;54.05;101461.19;4993024;28;20372;-76
2023/04/07 05:14:40;;;;;;;21.15;19.85;;;;;;;12.92;54.00;101456.59;5003764;28;20032;-75
2023/04/07 05:17:05;;;;;;;20.67;19.27;;;;;;;12.91;53.95;101463.09;4992778;28;20038;-76
2023/04/07 05:19:31;;;;;;;21.20;19.63;;;;;;;12.90;53.94;101456.84;5007901;28;20092;-76
2023/04/07 05:21:57;;;;;;;21.40;19.38;;;;;;;12.90;53.80;101467.72;5011117;28;20033;-76
2023/04/07 05:24:22;;;;;;;21.00;19.25;;;;;;;12.90;53.97;101472.28;5003153;28;20038;-76
2023/04/07 05:26:47;;;;;;;20.95;19.33;;;;;;;12.90;54.18;101472.28;4999845;28;20050;-76
2023/04/07 05:29:13;;;;;;;21.70;20.10;;;;;;;12.89;53.85;101470.66;4991640;28;20034;-76
2023/04/07 05:31:39;;;;;;;23.75;21.65;;;;;;;12.87;53.85;101465.44;5004375;28;20394;-76
2023/04/07 05:34:05;;;;;;;21.10;19.60;;;;;;;12.87;53.98;101464.63;5009413;28;20056;-76
2023/04/07 05:36:32;;;;;;;21.90;20.30;;;;;;;12.86;53.83;101471.94;5004223;28;20478;-75
2023/04/07 05:38:57;;;;;;;23.73;21.42;;;;;;;12.87;53.91;101476.28;5010498;28;20034;-77
2023/04/07 05:41:23;;;;;;;21.70;19.90;;;;;;;12.86;53.99;101477.38;5003502;28;20497;-75
2023/04/07 05:43:48;;;;;;;20.85;19.48;;;;;;;12.86;53.96;101471.94;4992956;28;20076;-76
2023/04/07 05:46:13;;;;;;;22.15;20.25;;;;;;;12.85;54.07;101475.75;5004411;28;20418;-76
2023/04/07 05:48:39;;;;;;;23.42;21.65;;;;;;;12.85;53.87;101481.16;5009675;28;20497;-76
2023/04/07 05:51:05;;;;;;;23.25;21.48;;;;;;;12.85;53.88;101483.88;5000336;28;20037;-77
2023/04/07 05:53:30;;;;;;;22.52;20.60;;;;;;;12.84;53.98;101482.19;4991710;28;20117;-76
2023/04/07 05:55:56;;;;;;;22.80;20.98;;;;;;;12.84;53.77;101492.22;4994744;28;20038;-76
2023/04/07 05:58:21;;;;;;;21.30;19.58;;;;;;;12.83;53.94;101491.41;4999779;28;20465;-76
2023/04/07 06:00:46;;;;;;;21.02;19.63;;;;;;;12.83;53.85;101496.84;5000703;28;20470;-76
2023/04/07 06:03:12;;;;;;;22.33;20.45;;;;;;;12.83;53.95;101494.13;5011528;28;20038;-76
2023/04/07 06:05:42;;;;;;;22.45;20.60;;;;;;;12.82;53.88;101499.78;5008379;28;20029;-76
2023/04/07 06:08:07;;;;;;;22.45;21.05;;;;;;;12.81;54.09;101496.25;5000926;28;20052;-76
2023/04/07 06:10:33;;;;;;;22.63;21.00;;;;;;;12.81;53.80;101496.25;4999188;28;20034;-77
2023/04/07 06:12:58;;;;;;;20.45;19.00;;;;;;;12.81;54.06;101504.38;5010830;28;20066;-78
2023/04/07 06:15:23;;;;;;;21.13;19.63;;;;;;;12.80;53.97;101502.75;5009961;28;20030;-76
2023/04/07 06:17:49;;;;;;;21.35;19.77;;;;;;;12.79;53.80;101503.78;5007388;28;20492;-76
2023/04/07 06:20:14;;;;;;;22.58;20.40;;;;;;;12.79;53.97;101498.38;5003496;28;20034;-76
2023/04/07 06:22:40;;;;;;;21.50;19.90;;;;;;;12.79;54.10;101503.78;4991499;28;20030;-76
2023/04/07 06:25:05;;;;;;;20.45;18.90;;;;;;;12.78;53.83;101511.09;4992116;28;20031;-76
2023/04/07 06:27:32;;;;;;;21.67;20.25;;;;;;;12.79;53.88;101517.34;4992376;28;20042;-76
2023/04/07 06:29:57;;;;;;;19.20;17.92;;;;;;;12.78;54.07;101502.16;4991718;28;20058;-75
2023/04/07 06:32:22;;;;;;;22.48;20.67;;;;;;;12.79;53.91;101514.63;4974875;28;20113;-76
2023/04/07 06:34:48;;;;;;;21.60;20.10;;;;;;;12.78;53.76;101515.72;4998681;28;20076;-76
2023/04/07 06:37:15;;;;;;;22.15;20.50;;;;;;;12.77;53.90;101503.19;5009604;28;20038;-76
2023/04/07 06:39:41;;;;;;;23.30;21.42;;;;;;;12.77;53.88;101511.34;4999266;28;20048;-75
2023/04/07 06:42:06;;;;;;;21.70;20.08;;;;;;;12.77;53.84;101512.19;5010120;28;20042;-75
2023/04/07 06:44:31;;;;;;;22.38;20.73;;;;;;;12.77;53.91;101516.75;5010618;28;20034;-76
2023/04/07 06:46:57;;;;;;;20.02;18.48;;;;;;;12.77;53.88;101514.03;5011090;28;20068;-76
2023/04/07 06:49:22;;;;;;;22.38;20.42;;;;;;;12.76;53.79;101515.94;5008462;28;20037;-76
2023/04/07 06:51:48;;;;;;;23.85;21.95;;;;;;;12.77;53.79;101524.88;5006534;28;20085;-76
2023/04/07 06:54:13;;;;;;;22.23;20.45;;;;;;;12.76;54.04;101518.66;4991043;28;20034;-76
2023/04/07 06:56:42;;;;;;;22.88;21.05;;;;;;;12.76;53.95;101521.34;4991251;28;20486;-77
2023/04/07 06:59:08;;;;;;;;;;;;;;;12.73;54.03;101529.16;5000547;28;20049;-76
2023/04/07 07:01:33;;;;;;;20.17;18.65;;;;;;;12.73;54.29;101526.44;5009567;28;19940;-76
2023/04/07 07:04:02;;;;;;;21.70;20.13;;;;;;;12.73;53.90;101526.44;5010364;28;20125;-76
2023/04/07 07:06:27;;;;;;;21.00;19.52;;;;;;;12.72;54.06;101528.31;5000902;28;20071;-76
2023/04/07 07:08:53;;;;;;;20.98;19.23;;;;;;;12.72;53.95;101528.31;4993739;28;20153;-76
2023/04/07 07:11:19;;;;;;;21.13;19.55;;;;;;;12.73;53.73;101535.38;5004062;28;20041;-76
2023/04/07 07:13:45;;;;;;;22.98;21.27;;;;;;;12.74;53.73;101545.16;4985428;28;20073;-76
2023/04/07 07:16:11;;;;;;;21.48;19.88;;;;;;;12.74;54.10;101539.75;5012805;28;20089;-76
2023/04/07 07:18:37;;;;;;;24.38;22.25;;;;;;;12.75;53.85;101545.97;5012698;28;20470;-76
2023/04/07 07:21:03;;;;;;;21.00;19.40;;;;;;;12.75;53.99;101548.69;4997545;28;20109;-76
2023/04/07 07:23:28;;;;;;;20.55;19.08;;;;;;;12.77;53.80;101549.28;5000509;28;20475;-77
2023/04/07 07:25:53;;;;;;;22.90;21.30;;;;;;;12.75;53.91;101549.53;4994618;28;20133;-75
2023/04/07 07:28:20;;;;;;;22.63;20.67;;;;;;;12.75;53.92;101554.97;5014858;28;20501;-76
2023/04/07 07:30:46;;;;;;;22.35;20.55;;;;;;;12.77;53.86;101554.72;5002897;28;20478;-78
2023/04/07 07:33:11;;;;;;;22.80;20.88;;;;;;;12.76;53.81;101555.78;5014373;28;20048;-81
2023/04/07 07:35:37;;;;;;;21.42;19.67;;;;;;;12.78;53.95;101559.09;5013610;28;20049;-79
2023/04/07 07:38:02;;;;;;;22.80;20.90;;;;;;;12.79;53.67;101566.16;5013166;28;20532;-79
2023/04/07 07:40:28;;;;;;;23.50;21.40;;;;;;;12.77;53.81;101558.25;5004503;28;20038;-79
2023/04/07 07:42:53;;;;;;;22.65;20.63;;;;;;;12.77;53.98;101574.53;5003880;28;20065;-77
2023/04/07 07:45:19;;;;;;;22.48;20.55;;;;;;;12.80;53.88;101569.66;5007199;28;20034;-77
2023/04/07 07:47:44;;;;;;;21.63;19.98;;;;;;;12.78;53.99;101576.16;5003905;28;20121;-80
2023/04/07 07:50:10;;;;;;;20.45;18.95;;;;;;;12.80;54.10;101578.66;4995425;28;20036;-79
2023/04/07 07:52:36;;;;;;;21.70;20.33;;;;;;;12.79;53.93;101577.00;5002259;28;20453;-76
2023/04/07 07:55:01;;;;;;;19.67;18.45;;;;;;;12.80;53.77;101583.22;5004774;28;20030;-78
2023/04/07 07:57:27;;;;;;;18.05;17.05;;;;;;;12.80;54.02;101586.78;5012551;28;20057;-77
2023/04/07 07:59:52;;;;;;;21.80;20.40;;;;;;;12.80;54.03;101594.06;5013287;28;20073;-78
2023/04/07 08:02:18;;;;;;;19.58;18.38;;;;;;;12.77;54.14;101598.09;5005076;28;20030;-77
2023/04/07 08:04:44;;;;;;;22.10;20.60;;;;;;;12.78;54.25;101591.63;5001895;28;20069;-77
2023/04/07 08:07:10;;;;;;;19.13;18.02;;;;;;;12.80;54.17;101602.22;4993667;28;20041;-77
2023/04/07 08:09:36;;;;;;;20.52;19.00;;;;;;;12.80;54.36;101600.34;4993130;28;20049;-78
2023/04/07 08:12:02;;;;;;;20.85;19.48;;;;;;;12.82;54.22;101613.66;4998084;28;20046;-78
2023/04/07 08:14:28;;;;;;;19.90;18.45;;;;;;;12.82;54.24;101605.50;4998525;28;20096;-77
2023/04/07 08:16:53;;;;;;;20.70;19.40;;;;;;;12.81;54.29;101609.28;5004690;28;20529;-80
2023/04/07 08:19:19;;;;;;;19.30;18.00;;;;;;;12.81;54.25;101606.59;4992879;28;20041;-83
2023/04/07 08:21:44;;;;;;;21.80;20.23;;;;;;;12.83;54.32;101609.91;4995683;28;20037;-81
2023/04/07 08:24:10;;;;;;;19.63;18.48;;;;;;;12.83;54.32;101610.72;5008405;28;20060;-81
2023/04/07 08:26:35;;;;;;;19.55;18.35;;;;;;;12.85;54.31;101608.59;4993738;28;20038;-78
2023/04/07 08:29:01;;;;;;;19.83;18.48;;;;;;;12.86;54.35;101620.25;4996753;28;20817;-80
2023/04/07 08:31:26;;;;;;;20.67;19.48;;;;;;;12.87;54.30;101621.91;5000109;28;20084;-80
2023/04/07 08:33:57;;;;;;;21.55;20.15;;;;;;;12.87;54.08;101622.72;4995075;28;20045;-82
2023/04/07 08:36:23;;;;;;;19.92;18.42;;;;;;;12.89;54.17;101625.19;4994525;28;20481;-81
2023/04/07 08:38:49;;;;;;;21.08;19.42;;;;;;;12.89;54.24;101620.59;5008130;28;20033;-79
2023/04/07 08:41:29;;;;;;;19.98;18.75;;;;;;;12.88;54.05;101627.09;5008812;28;20049;-81
2023/04/07 08:43:56;;;;;;;22.02;20.05;;;;;;;12.90;54.02;101633.13;4997985;28;20084;-77
2023/04/07 08:46:24;;;;;;;19.65;18.38;;;;;;;12.91;54.33;101623.09;5010524;28;20496;-79
2023/04/07 08:48:51;;;;;;;20.95;19.63;;;;;;;12.93;54.20;101623.69;4995075;28;20035;-79
2023/04/07 08:51:29;;;;;;;19.27;17.83;;;;;;;12.92;54.25;101617.41;5013039;28;20035;-78
2023/04/07 08:54:04;;;;;;;21.52;20.13;;;;;;;12.93;54.22;101620.97;5012794;28;20030;-78
2023/04/07 08:56:33;;;;;;;19.00;17.80;;;;;;;12.94;54.15;101623.41;5008411;28;20038;-76
2023/04/07 08:59:00;;;;;;;21.60;20.17;;;;;;;12.95;54.14;101626.94;5004749;28;20109;-69
2023/04/07 09:01:27;;;;;;;19.83;18.52;;;;;;;12.96;53.91;101632.16;4996179;28;20486;-81
2023/04/07 09:03:52;;;;;;;21.23;19.75;;;;;;;12.97;54.28;101625.66;5006213;28;20029;-84
2023/04/07 09:06:18;;;;;;;19.58;18.27;;;;;;;12.97;54.34;101631.06;5004350;28;20045;-81
2023/04/07 09:08:43;;;;;;;21.38;20.13;;;;;;;12.99;54.31;101637.09;5007331;28;20397;-80
2023/04/07 09:11:09;;;;;;;20.90;19.05;;;;;;;13.01;54.00;101641.47;5000031;28;20096;-79
2023/04/07 09:13:34;;;;;;;18.67;17.67;;;;;;;13.02;54.14;101640.41;4990033;28;20046;-79
2023/04/07 09:16:01;;;;;;;20.67;19.30;;;;;;;13.02;54.15;101640.41;4990340;28;20035;-81
2023/04/07 09:18:27;;;;;;;21.98;20.42;;;;;;;13.02;54.04;101643.94;4991589;28;20489;-81
2023/04/07 09:21:04;;;;;;;21.77;20.13;;;;;;;13.04;54.36;101643.72;4990596;28;20494;-82
2023/04/07 09:23:34;;;;;;;18.92;17.83;;;;;;;13.04;54.15;101643.72;4994313;28;20033;-80
2023/04/07 09:26:17;;;;;;;23.45;21.40;;;;;;;13.05;54.38;101645.34;5000168;28;20038;-83
2023/04/07 09:28:49;;;;;;;19.35;17.95;;;;;;;13.06;54.15;101649.72;4994504;28;20512;-81
2023/04/07 09:31:15;;;;;;;20.98;19.40;;;;;;;13.07;54.26;101643.22;5000638;28;20030;-80
2023/04/07 09:33:41;;;;;;;18.45;17.45;;;;;;;13.08;54.18;101647.56;4998467;28;20029;-84
2023/04/07 09:36:06;;;;;;;19.02;17.92;;;;;;;13.09;54.42;101643.81;5008817;28;20887;-81
2023/04/07 09:38:36;;;;;;;18.15;17.15;;;;;;;13.08;54.69;101651.13;4973929;28;20041;-82
2023/04/07 09:41:09;;;;;;;20.60;19.30;;;;;;;13.09;54.47;101651.97;5008654;28;20042;-83
2023/04/07 09:43:43;;;;;;;19.77;18.65;;;;;;;13.09;54.41;101644.63;4996110;28;20486;-81
2023/04/07 09:46:10;;;;;;;19.45;18.45;;;;;;;13.12;54.66;101654.19;4992028;28;20616;-82
2023/04/07 09:48:35;;;;;;;18.48;17.58;;;;;;;13.14;54.59;101649.34;5004363;28;20030;-82
2023/04/07 09:51:05;;;;;;;21.48;20.13;;;;;;;13.14;54.64;101649.34;4990525;28;20033;-82
2023/04/07 09:53:50;;;;;;;19.65;18.45;;;;;;;13.15;54.43;101651.84;4991020;28;20036;-82
2023/04/07 09:56:17;;;;;;;20.17;18.90;;;;;;;13.17;54.47;101649.69;4989527;28;20560;-80
2023/04/07 09:58:47;;;;;;;19.08;18.05;;;;;;;13.19;54.51;101655.72;4994033;28;20054;-81
2023/04/07 10:01:15;;;;;;;18.80;17.77;;;;;;;13.20;54.59;101660.09;4999719;28;20460;-85
2023/04/07 10:03:42;;;;;;;19.50;18.40;;;;;;;13.23;54.51;101658.78;4996251;28;20096;-82
2023/04/07 10:06:07;;;;;;;21.35;20.08;;;;;;;13.25;54.42;101659.34;4988468;28;20066;-80
2023/04/07 10:08:38;;;;;;;18.83;17.83;;;;;;;13.27;54.33;101659.97;5007662;28;20088;-84
2023/04/07 10:11:05;;;;;;;20.48;19.17;;;;;;;13.28;54.53;101664.38;4995782;28;20053;-84
2023/04/07 10:13:34;;;;;;;19.25;17.98;;;;;;;13.28;54.45;101660.81;4996972;28;20030;-83
2023/04/07 10:16:03;;;;;;;21.85;20.48;;;;;;;13.29;54.68;101665.19;5000821;28;20041;-83
2023/04/07 10:18:32;;;;;;;19.02;18.02;;;;;;;13.29;54.95;101674.13;5009500;28;20030;-81
2023/04/07 10:21:01;;;;;;;;;;;;;;;13.27;54.84;101670.00;4997850;28;20046;-79
2023/04/07 10:24:03;;;;;;;16.90;16.00;;;;;;;13.27;54.93;101673.53;5006172;28;20366;-81
2023/04/07 10:26:33;;;;;;;16.95;16.00;;;;;;;13.28;54.84;101675.22;4990787;28;20501;-82
2023/04/07 10:29:04;;;;;;;20.55;19.20;;;;;;;13.29;54.95;101666.00;4989359;28;20117;-82
2023/04/07 10:31:30;;;;;;;19.90;18.73;;;;;;;13.32;54.71;101678.25;5002005;28;20022;-82
2023/04/07 10:33:56;;;;;;;20.85;19.60;;;;;;;13.35;54.90;101670.47;5000008;28;20038;-83
2023/04/07 10:36:21;;;;;;;18.60;17.60;;;;;;;13.36;55.02;101674.84;4990461;28;20034;-85
2023/04/07 10:39:05;;;;;;;19.65;18.23;;;;;;;13.37;54.83;101679.19;5001712;28;20114;-85
2023/04/07 10:41:36;;;;;;;18.13;17.13;;;;;;;13.40;54.82;101684.13;4995041;28;20100;-83
2023/04/07 10:44:02;;;;;;;20.15;18.95;;;;;;;13.42;55.07;101684.72;5002992;28;20037;-86
2023/04/07 10:46:50;;;;;;;18.80;17.80;;;;;;;13.44;54.95;101689.13;5001995;28;20052;-84
2023/04/07 10:49:16;;;;;;;18.38;17.30;;;;;;;13.44;55.10;101691.81;4998524;28;20105;-78
2023/04/07 10:51:42;;;;;;;18.67;17.60;;;;;;;13.46;55.02;101689.72;4999048;28;20108;-85
2023/04/07 10:54:19;;;;;;;23.20;18.40;;;;;;;13.46;55.13;101689.72;5010740;28;20147;-84
2023/04/07 10:57:10;;;;;;;19.35;18.27;;;;;;;13.46;55.42;101697.84;5004141;28;20030;-79
2023/04/07 10:59:38;;;;;;;20.83;19.65;;;;;;;13.47;55.03;101689.44;5006797;28;20056;-85
2023/04/07 11:02:12;;;;;;;22.45;20.65;;;;;;;13.50;55.20;101688.97;5004051;28;20029;-86
2023/04/07 11:04:40;;;;;;;19.30;18.20;;;;;;;13.52;55.22;101686.84;5003720;28;20053;-85
2023/04/07 11:07:06;;;;;;;20.38;19.17;;;;;;;13.54;55.21;101697.47;4994836;28;20030;-86
2023/04/07 11:09:31;;;;;;;19.38;18.17;;;;;;;13.56;55.19;101693.44;4993049;28;20033;-84